sensor_id;sensor_type;location;lat;lon;timestamp;P1;durP1;ratioP1;P2;durP2;ratioP2
67348;SDS011;54234;50.320;3.474;2023-05-24T09:02:33;0.20;;;0.20;;
67348;SDS011;54234;50.320;3.474;2023-05-24T09:04:59;0.20;;;0.20;;
67348;SDS011;54234;50.320;3.474;2023-05-24T09:07:25;0.30;;;0.30;;
67348;SDS011;54234;50.320;3.474;2023-05-24T09:09:57;0.30;;;0.30;;
67348;SDS011;54234;50.320;3.474;2023-05-24T09:12:25;0.30;;;0.30;;
67348;SDS011;54234;50.320;3.474;2023-05-24T09:14:51;0.20;;;0.20;;
67348;SDS011;54234;50.320;3.474;2023-05-24T09:17:17;0.30;;;0.30;;
67348;SDS011;54234;50.320;3.474;2023-05-24T09:19:46;0.30;;;0.30;;
67348;SDS011;54234;50.320;3.474;2023-05-24T09:22:12;0.30;;;0.30;;
67348;SDS011;54234;50.320;3.474;2023-05-24T09:24:56;0.30;;;0.30;;
67348;SDS011;54234;50.320;3.474;2023-05-24T09:27:22;0.30;;;0.30;;
67348;SDS011;54234;50.320;3.474;2023-05-24T09:29:47;0.30;;;0.30;;
67348;SDS011;54234;50.320;3.474;2023-05-24T09:32:16;0.30;;;0.30;;
67348;SDS011;54234;50.320;3.474;2023-05-24T09:34:42;0.30;;;0.30;;
67348;SDS011;54234;50.320;3.474;2023-05-24T09:37:42;0.30;;;0.30;;
67348;SDS011;54234;50.320;3.474;2023-05-24T09:40:00;0.30;;;0.30;;
67348;SDS011;54234;50.320;3.474;2023-05-24T09:42:26;0.30;;;0.30;;
67348;SDS011;54234;50.320;3.474;2023-05-24T09:44:57;0.30;;;0.30;;
67348;SDS011;54234;50.320;3.474;2023-05-24T09:47:28;0.30;;;0.30;;
67348;SDS011;54234;50.320;3.474;2023-05-24T09:49:53;0.30;;;0.30;;
67348;SDS011;54234;50.320;3.474;2023-05-24T09:52:18;0.30;;;0.30;;
67348;SDS011;54234;50.320;3.474;2023-05-24T09:54:45;0.30;;;0.30;;
67348;SDS011;54234;50.320;3.474;2023-05-24T09:57:12;0.30;;;0.30;;
67348;SDS011;54234;50.320;3.474;2023-05-24T09:59:39;0.30;;;0.30;;
67348;SDS011;54234;50.320;3.474;2023-05-24T10:02:08;0.30;;;0.30;;
67348;SDS011;54234;50.320;3.474;2023-05-24T10:04:34;0.30;;;0.30;;
67348;SDS011;54234;50.320;3.474;2023-05-24T10:07:00;0.30;;;0.30;;
67348;SDS011;54234;50.320;3.474;2023-05-24T10:09:27;0.30;;;0.30;;
67348;SDS011;54234;50.320;3.474;2023-05-24T10:11:57;0.30;;;0.30;;
67348;SDS011;54234;50.320;3.474;2023-05-24T10:14:23;0.30;;;0.30;;
67348;SDS011;54234;50.320;3.474;2023-05-24T10:16:49;0.30;;;0.30;;
67348;SDS011;54234;50.320;3.474;2023-05-24T10:19:14;0.30;;;0.30;;
67348;SDS011;54234;50.320;3.474;2023-05-24T10:21:41;0.40;;;0.40;;
67348;SDS011;54234;50.320;3.474;2023-05-24T10:24:06;0.30;;;0.30;;
67348;SDS011;54234;50.320;3.474;2023-05-24T10:26:33;0.38;;;0.38;;
67348;SDS011;54234;50.320;3.474;2023-05-24T10:29:03;0.30;;;0.30;;
67348;SDS011;54234;50.320;3.474;2023-05-24T10:31:35;0.40;;;0.40;;
67348;SDS011;54234;50.320;3.474;2023-05-24T10:34:01;0.30;;;0.30;;
67348;SDS011;54234;50.320;3.474;2023-05-24T10:36:27;0.30;;;0.30;;
67348;SDS011;54234;50.320;3.474;2023-05-24T10:38:53;0.30;;;0.30;;
67348;SDS011;54234;50.320;3.474;2023-05-24T10:41:18;0.30;;;0.30;;
67348;SDS011;54234;50.320;3.474;2023-05-24T10:43:46;0.30;;;0.30;;
67348;SDS011;54234;50.320;3.474;2023-05-24T10:46:13;0.30;;;0.30;;
67348;SDS011;54234;50.320;3.474;2023-05-24T10:48:39;0.30;;;0.30;;
67348;SDS011;54234;50.320;3.474;2023-05-24T10:53:48;0.30;;;0.30;;
67348;SDS011;54234;50.320;3.474;2023-05-24T10:56:13;0.30;;;0.30;;
67348;SDS011;54234;50.320;3.474;2023-05-24T11:01:13;0.30;;;0.30;;
67348;SDS011;54234;50.320;3.474;2023-05-24T11:03:48;0.30;;;0.30;;
67348;SDS011;54234;50.320;3.474;2023-05-24T11:06:13;0.30;;;0.30;;
67348;SDS011;54234;50.320;3.474;2023-05-24T11:08:39;0.30;;;0.30;;
67348;SDS011;54234;50.320;3.474;2023-05-24T11:11:07;0.30;;;0.30;;
67348;SDS011;54234;50.320;3.474;2023-05-24T11:13:36;0.30;;;0.30;;
67348;SDS011;54234;50.320;3.474;2023-05-24T11:16:02;0.30;;;0.30;;
67348;SDS011;54234;50.320;3.474;2023-05-24T11:18:27;0.30;;;0.30;;
67348;SDS011;54234;50.320;3.474;2023-05-24T11:20:53;0.30;;;0.30;;
67348;SDS011;54234;50.320;3.474;2023-05-24T11:23:18;0.30;;;0.30;;
67348;SDS011;54234;50.320;3.474;2023-05-24T11:25:45;0.30;;;0.30;;
67348;SDS011;54234;50.320;3.474;2023-05-24T11:28:11;0.30;;;0.30;;
67348;SDS011;54234;50.320;3.474;2023-05-24T11:30:40;0.30;;;0.30;;
67348;SDS011;54234;50.320;3.474;2023-05-24T11:33:21;0.30;;;0.30;;
67348;SDS011;54234;50.320;3.474;2023-05-24T11:35:50;0.30;;;0.30;;
67348;SDS011;54234;50.320;3.474;2023-05-24T11:38:16;0.30;;;0.30;;
67348;SDS011;54234;50.320;3.474;2023-05-24T11:40:43;0.30;;;0.30;;
67348;SDS011;54234;50.320;3.474;2023-05-24T11:43:29;0.30;;;0.30;;
67348;SDS011;54234;50.320;3.474;2023-05-24T11:45:54;0.30;;;0.30;;
67348;SDS011;54234;50.320;3.474;2023-05-24T11:48:20;0.30;;;0.30;;
67348;SDS011;54234;50.320;3.474;2023-05-24T11:50:45;0.30;;;0.30;;
67348;SDS011;54234;50.320;3.474;2023-05-24T11:53:15;0.30;;;0.30;;
67348;SDS011;54234;50.320;3.474;2023-05-24T11:55:41;0.30;;;0.30;;
67348;SDS011;54234;50.320;3.474;2023-05-24T12:00:46;0.30;;;0.30;;
67348;SDS011;54234;50.320;3.474;2023-05-24T12:03:11;0.30;;;0.30;;
67348;SDS011;54234;50.320;3.474;2023-05-24T12:05:37;0.30;;;0.30;;
67348;SDS011;54234;50.320;3.474;2023-05-24T12:10:29;0.30;;;0.30;;
67348;SDS011;54234;50.320;3.474;2023-05-24T12:12:55;0.30;;;0.30;;
67348;SDS011;54234;50.320;3.474;2023-05-24T12:15:20;0.30;;;0.30;;
67348;SDS011;54234;50.320;3.474;2023-05-24T12:17:46;0.30;;;0.30;;
67348;SDS011;54234;50.320;3.474;2023-05-24T12:20:14;0.30;;;0.30;;
67348;SDS011;54234;50.320;3.474;2023-05-24T12:22:46;0.30;;;0.30;;
67348;SDS011;54234;50.320;3.474;2023-05-24T12:25:12;0.40;;;0.40;;
67348;SDS011;54234;50.320;3.474;2023-05-24T12:27:41;0.40;;;0.40;;
67348;SDS011;54234;50.320;3.474;2023-05-24T12:30:11;0.40;;;0.40;;
67348;SDS011;54234;50.320;3.474;2023-05-24T12:32:42;0.40;;;0.40;;
67348;SDS011;54234;50.320;3.474;2023-05-24T12:35:08;0.40;;;0.40;;
67348;SDS011;54234;50.320;3.474;2023-05-24T12:37:34;0.40;;;0.40;;
67348;SDS011;54234;50.320;3.474;2023-05-24T12:40:00;0.50;;;0.50;;
67348;SDS011;54234;50.320;3.474;2023-05-24T12:42:25;0.50;;;0.50;;
67348;SDS011;54234;50.320;3.474;2023-05-24T12:44:51;0.50;;;0.50;;
67348;SDS011;54234;50.320;3.474;2023-05-24T12:47:18;0.50;;;0.50;;
67348;SDS011;54234;50.320;3.474;2023-05-24T12:49:43;0.50;;;0.50;;
67348;SDS011;54234;50.320;3.474;2023-05-24T12:52:08;0.43;;;0.43;;
67348;SDS011;54234;50.320;3.474;2023-05-24T12:54:33;0.50;;;0.50;;
67348;SDS011;54234;50.320;3.474;2023-05-24T12:56:59;0.40;;;0.40;;
67348;SDS011;54234;50.320;3.474;2023-05-24T12:59:26;0.40;;;0.40;;
67348;SDS011;54234;50.320;3.474;2023-05-24T13:01:52;0.50;;;0.50;;
67348;SDS011;54234;50.320;3.474;2023-05-24T13:04:17;0.50;;;0.50;;
67348;SDS011;54234;50.320;3.474;2023-05-24T13:06:43;0.50;;;0.50;;
67348;SDS011;54234;50.320;3.474;2023-05-24T13:09:08;0.50;;;0.50;;
67348;SDS011;54234;50.320;3.474;2023-05-24T13:11:34;0.50;;;0.50;;
67348;SDS011;54234;50.320;3.474;2023-05-24T13:14:01;0.50;;;0.50;;
67348;SDS011;54234;50.320;3.474;2023-05-24T13:16:27;0.40;;;0.40;;
67348;SDS011;54234;50.320;3.474;2023-05-24T13:18:52;0.40;;;0.40;;
67348;SDS011;54234;50.320;3.474;2023-05-24T13:21:17;0.40;;;0.40;;
67348;SDS011;54234;50.320;3.474;2023-05-24T13:23:43;0.40;;;0.40;;
67348;SDS011;54234;50.320;3.474;2023-05-24T13:26:08;0.40;;;0.40;;
67348;SDS011;54234;50.320;3.474;2023-05-24T13:28:33;0.40;;;0.40;;
67348;SDS011;54234;50.320;3.474;2023-05-24T13:30:59;0.37;;;0.37;;
67348;SDS011;54234;50.320;3.474;2023-05-24T13:33:24;0.38;;;0.38;;
67348;SDS011;54234;50.320;3.474;2023-05-24T13:35:50;0.40;;;0.40;;
67348;SDS011;54234;50.320;3.474;2023-05-24T13:38:16;0.40;;;0.40;;
67348;SDS011;54234;50.320;3.474;2023-05-24T13:40:41;0.40;;;0.40;;
67348;SDS011;54234;50.320;3.474;2023-05-24T13:43:06;0.30;;;0.30;;
67348;SDS011;54234;50.320;3.474;2023-05-24T13:45:32;0.40;;;0.40;;
67348;SDS011;54234;50.320;3.474;2023-05-24T13:47:57;0.40;;;0.40;;
67348;SDS011;54234;50.320;3.474;2023-05-24T13:50:27;0.30;;;0.30;;
67348;SDS011;54234;50.320;3.474;2023-05-24T13:52:53;0.40;;;0.40;;
67348;SDS011;54234;50.320;3.474;2023-05-24T13:55:18;0.40;;;0.40;;
67348;SDS011;54234;50.320;3.474;2023-05-24T13:57:43;0.40;;;0.40;;
67348;SDS011;54234;50.320;3.474;2023-05-24T14:00:09;0.30;;;0.30;;
67348;SDS011;54234;50.320;3.474;2023-05-24T14:02:34;0.30;;;0.30;;
67348;SDS011;54234;50.320;3.474;2023-05-24T14:04:59;0.30;;;0.30;;
67348;SDS011;54234;50.320;3.474;2023-05-24T14:07:25;0.40;;;0.40;;
67348;SDS011;54234;50.320;3.474;2023-05-24T14:09:50;0.30;;;0.30;;
67348;SDS011;54234;50.320;3.474;2023-05-24T14:12:15;0.40;;;0.40;;
67348;SDS011;54234;50.320;3.474;2023-05-24T14:14:41;0.40;;;0.40;;
67348;SDS011;54234;50.320;3.474;2023-05-24T14:17:06;0.40;;;0.40;;
67348;SDS011;54234;50.320;3.474;2023-05-24T14:19:32;0.40;;;0.40;;
67348;SDS011;54234;50.320;3.474;2023-05-24T14:21:58;0.40;;;0.40;;
67348;SDS011;54234;50.320;3.474;2023-05-24T14:24:23;0.40;;;0.40;;
67348;SDS011;54234;50.320;3.474;2023-05-24T14:26:49;0.30;;;0.30;;
67348;SDS011;54234;50.320;3.474;2023-05-24T14:29:14;0.30;;;0.30;;
67348;SDS011;54234;50.320;3.474;2023-05-24T14:31:40;0.30;;;0.30;;
67348;SDS011;54234;50.320;3.474;2023-05-24T14:34:08;0.30;;;0.30;;
67348;SDS011;54234;50.320;3.474;2023-05-24T14:36:34;0.30;;;0.30;;
67348;SDS011;54234;50.320;3.474;2023-05-24T14:39:01;0.30;;;0.30;;
67348;SDS011;54234;50.320;3.474;2023-05-24T14:41:26;0.30;;;0.30;;
67348;SDS011;54234;50.320;3.474;2023-05-24T14:43:52;0.30;;;0.30;;
67348;SDS011;54234;50.320;3.474;2023-05-24T14:46:17;0.30;;;0.30;;
67348;SDS011;54234;50.320;3.474;2023-05-24T14:48:43;0.30;;;0.30;;
67348;SDS011;54234;50.320;3.474;2023-05-24T14:51:08;0.37;;;0.37;;
67348;SDS011;54234;50.320;3.474;2023-05-24T14:53:33;0.30;;;0.30;;
67348;SDS011;54234;50.320;3.474;2023-05-24T14:55:58;0.30;;;0.30;;
67348;SDS011;54234;50.320;3.474;2023-05-24T14:58:23;0.30;;;0.30;;
67348;SDS011;54234;50.320;3.474;2023-05-24T15:00:50;0.30;;;0.30;;
67348;SDS011;54234;50.320;3.474;2023-05-24T15:03:15;0.30;;;0.30;;
67348;SDS011;54234;50.320;3.474;2023-05-24T15:05:40;0.30;;;0.30;;
67348;SDS011;54234;50.320;3.474;2023-05-24T15:08:06;0.30;;;0.30;;
67348;SDS011;54234;50.320;3.474;2023-05-24T15:10:32;0.30;;;0.30;;
67348;SDS011;54234;50.320;3.474;2023-05-24T15:12:57;0.30;;;0.30;;
67348;SDS011;54234;50.320;3.474;2023-05-24T15:15:22;0.30;;;0.30;;
67348;SDS011;54234;50.320;3.474;2023-05-24T15:17:47;0.30;;;0.30;;
67348;SDS011;54234;50.320;3.474;2023-05-24T15:20:12;0.30;;;0.30;;
67348;SDS011;54234;50.320;3.474;2023-05-24T15:22:38;0.30;;;0.30;;
67348;SDS011;54234;50.320;3.474;2023-05-24T15:25:03;0.30;;;0.30;;
67348;SDS011;54234;50.320;3.474;2023-05-24T15:27:28;0.30;;;0.30;;
67348;SDS011;54234;50.320;3.474;2023-05-24T15:29:54;0.30;;;0.30;;
67348;SDS011;54234;50.320;3.474;2023-05-24T15:32:22;0.30;;;0.30;;
67348;SDS011;54234;50.320;3.474;2023-05-24T15:34:48;0.30;;;0.30;;
67348;SDS011;54234;50.320;3.474;2023-05-24T15:37:14;0.30;;;0.30;;
67348;SDS011;54234;50.320;3.474;2023-05-24T15:39:41;0.30;;;0.30;;
67348;SDS011;54234;50.320;3.474;2023-05-24T15:42:06;0.30;;;0.30;;
67348;SDS011;54234;50.320;3.474;2023-05-24T15:44:31;0.40;;;0.40;;
67348;SDS011;54234;50.320;3.474;2023-05-24T15:46:57;0.30;;;0.30;;
67348;SDS011;54234;50.320;3.474;2023-05-24T15:49:22;0.30;;;0.30;;
67348;SDS011;54234;50.320;3.474;2023-05-24T15:51:47;0.30;;;0.30;;
67348;SDS011;54234;50.320;3.474;2023-05-24T15:54:12;0.30;;;0.30;;
67348;SDS011;54234;50.320;3.474;2023-05-24T15:56:38;0.30;;;0.30;;
67348;SDS011;54234;50.320;3.474;2023-05-24T15:59:03;0.30;;;0.30;;
67348;SDS011;54234;50.320;3.474;2023-05-24T16:01:28;0.32;;;0.32;;
67348;SDS011;54234;50.320;3.474;2023-05-24T16:03:56;0.30;;;0.30;;
67348;SDS011;54234;50.320;3.474;2023-05-24T16:06:21;0.30;;;0.30;;
67348;SDS011;54234;50.320;3.474;2023-05-24T16:08:46;0.40;;;0.40;;
67348;SDS011;54234;50.320;3.474;2023-05-24T16:11:13;0.40;;;0.40;;
67348;SDS011;54234;50.320;3.474;2023-05-24T16:13:38;0.30;;;0.30;;
67348;SDS011;54234;50.320;3.474;2023-05-24T16:16:03;0.30;;;0.30;;
67348;SDS011;54234;50.320;3.474;2023-05-24T16:18:29;0.30;;;0.30;;
67348;SDS011;54234;50.320;3.474;2023-05-24T16:20:58;0.30;;;0.30;;
67348;SDS011;54234;50.320;3.474;2023-05-24T16:23:23;0.30;;;0.30;;
67348;SDS011;54234;50.320;3.474;2023-05-24T16:25:48;0.30;;;0.30;;
67348;SDS011;54234;50.320;3.474;2023-05-24T16:28:13;0.30;;;0.30;;
67348;SDS011;54234;50.320;3.474;2023-05-24T16:30:39;0.30;;;0.30;;
67348;SDS011;54234;50.320;3.474;2023-05-24T16:33:04;0.30;;;0.30;;
67348;SDS011;54234;50.320;3.474;2023-05-24T16:35:29;0.30;;;0.30;;
67348;SDS011;54234;50.320;3.474;2023-05-24T16:37:55;0.30;;;0.30;;
67348;SDS011;54234;50.320;3.474;2023-05-24T16:40:20;0.30;;;0.30;;
67348;SDS011;54234;50.320;3.474;2023-05-24T16:42:45;0.30;;;0.30;;
67348;SDS011;54234;50.320;3.474;2023-05-24T16:45:12;0.30;;;0.30;;
67348;SDS011;54234;50.320;3.474;2023-05-24T16:47:37;0.30;;;0.30;;
67348;SDS011;54234;50.320;3.474;2023-05-24T16:50:02;0.30;;;0.30;;
67348;SDS011;54234;50.320;3.474;2023-05-24T16:52:28;0.30;;;0.30;;
67348;SDS011;54234;50.320;3.474;2023-05-24T16:54:54;0.30;;;0.30;;
67348;SDS011;54234;50.320;3.474;2023-05-24T16:57:19;0.30;;;0.30;;
67348;SDS011;54234;50.320;3.474;2023-05-24T16:59:44;0.30;;;0.30;;
67348;SDS011;54234;50.320;3.474;2023-05-24T17:02:09;0.30;;;0.30;;
67348;SDS011;54234;50.320;3.474;2023-05-24T17:04:35;0.30;;;0.30;;
67348;SDS011;54234;50.320;3.474;2023-05-24T17:07:00;0.30;;;0.30;;
67348;SDS011;54234;50.320;3.474;2023-05-24T17:09:25;0.30;;;0.30;;
67348;SDS011;54234;50.320;3.474;2023-05-24T17:11:51;0.30;;;0.30;;
67348;SDS011;54234;50.320;3.474;2023-05-24T17:14:16;0.30;;;0.30;;
67348;SDS011;54234;50.320;3.474;2023-05-24T17:16:41;0.30;;;0.30;;
67348;SDS011;54234;50.320;3.474;2023-05-24T17:19:07;0.30;;;0.30;;
67348;SDS011;54234;50.320;3.474;2023-05-24T17:21:32;0.30;;;0.30;;
67348;SDS011;54234;50.320;3.474;2023-05-24T17:23:58;0.30;;;0.30;;
67348;SDS011;54234;50.320;3.474;2023-05-24T17:26:23;0.30;;;0.30;;
67348;SDS011;54234;50.320;3.474;2023-05-24T17:31:33;0.30;;;0.30;;
67348;SDS011;54234;50.320;3.474;2023-05-24T17:33:58;0.30;;;0.30;;
67348;SDS011;54234;50.320;3.474;2023-05-24T17:36:24;0.30;;;0.30;;
67348;SDS011;54234;50.320;3.474;2023-05-24T17:38:49;0.30;;;0.30;;
67348;SDS011;54234;50.320;3.474;2023-05-24T17:41:15;0.30;;;0.30;;
67348;SDS011;54234;50.320;3.474;2023-05-24T17:43:40;0.30;;;0.30;;
67348;SDS011;54234;50.320;3.474;2023-05-24T17:46:05;0.30;;;0.30;;
67348;SDS011;54234;50.320;3.474;2023-05-24T17:48:31;0.30;;;0.30;;
67348;SDS011;54234;50.320;3.474;2023-05-24T17:51:00;0.30;;;0.30;;
67348;SDS011;54234;50.320;3.474;2023-05-24T17:53:26;0.30;;;0.30;;
67348;SDS011;54234;50.320;3.474;2023-05-24T17:55:51;0.30;;;0.30;;
67348;SDS011;54234;50.320;3.474;2023-05-24T17:58:16;0.30;;;0.30;;
67348;SDS011;54234;50.320;3.474;2023-05-24T18:00:41;0.30;;;0.30;;
67348;SDS011;54234;50.320;3.474;2023-05-24T18:03:07;0.30;;;0.30;;
67348;SDS011;54234;50.320;3.474;2023-05-24T18:05:32;0.30;;;0.30;;
67348;SDS011;54234;50.320;3.474;2023-05-24T18:07:57;0.30;;;0.30;;
67348;SDS011;54234;50.320;3.474;2023-05-24T18:10:22;0.30;;;0.30;;
67348;SDS011;54234;50.320;3.474;2023-05-24T18:12:48;0.30;;;0.30;;
67348;SDS011;54234;50.320;3.474;2023-05-24T18:15:13;0.30;;;0.30;;
67348;SDS011;54234;50.320;3.474;2023-05-24T18:17:38;0.30;;;0.30;;
67348;SDS011;54234;50.320;3.474;2023-05-24T18:20:03;0.30;;;0.30;;
67348;SDS011;54234;50.320;3.474;2023-05-24T18:22:29;0.30;;;0.30;;
67348;SDS011;54234;50.320;3.474;2023-05-24T18:24:54;0.30;;;0.30;;
67348;SDS011;54234;50.320;3.474;2023-05-24T18:27:20;0.30;;;0.30;;
67348;SDS011;54234;50.320;3.474;2023-05-24T18:38:32;0.30;;;0.30;;
67348;SDS011;54234;50.320;3.474;2023-05-24T18:40:57;0.30;;;0.30;;
67348;SDS011;54234;50.320;3.474;2023-05-24T18:43:22;0.30;;;0.30;;
67348;SDS011;54234;50.320;3.474;2023-05-24T18:45:48;0.30;;;0.30;;
67348;SDS011;54234;50.320;3.474;2023-05-24T18:48:13;0.30;;;0.30;;
67348;SDS011;54234;50.320;3.474;2023-05-24T18:50:38;0.30;;;0.30;;
67348;SDS011;54234;50.320;3.474;2023-05-24T18:53:03;0.30;;;0.30;;
67348;SDS011;54234;50.320;3.474;2023-05-24T18:55:28;0.30;;;0.30;;
67348;SDS011;54234;50.320;3.474;2023-05-24T18:57:54;0.30;;;0.30;;
67348;SDS011;54234;50.320;3.474;2023-05-24T19:00:19;0.30;;;0.30;;
67348;SDS011;54234;50.320;3.474;2023-05-24T19:02:46;0.30;;;0.30;;
67348;SDS011;54234;50.320;3.474;2023-05-24T19:05:11;0.40;;;0.40;;
67348;SDS011;54234;50.320;3.474;2023-05-24T19:07:37;0.30;;;0.30;;
67348;SDS011;54234;50.320;3.474;2023-05-24T19:10:02;0.30;;;0.30;;
67348;SDS011;54234;50.320;3.474;2023-05-24T19:12:27;0.30;;;0.30;;
67348;SDS011;54234;50.320;3.474;2023-05-24T19:14:53;0.30;;;0.30;;
67348;SDS011;54234;50.320;3.474;2023-05-24T19:17:19;0.30;;;0.30;;
67348;SDS011;54234;50.320;3.474;2023-05-24T19:19:44;0.30;;;0.30;;
67348;SDS011;54234;50.320;3.474;2023-05-24T19:22:09;0.23;;;0.23;;
67348;SDS011;54234;50.320;3.474;2023-05-24T19:24:34;0.30;;;0.30;;
67348;SDS011;54234;50.320;3.474;2023-05-24T19:27:00;0.30;;;0.30;;
67348;SDS011;54234;50.320;3.474;2023-05-24T19:29:25;0.30;;;0.30;;
67348;SDS011;54234;50.320;3.474;2023-05-24T19:31:50;0.30;;;0.30;;
67348;SDS011;54234;50.320;3.474;2023-05-24T19:34:16;0.30;;;0.30;;
67348;SDS011;54234;50.320;3.474;2023-05-24T19:36:42;0.30;;;0.30;;
67348;SDS011;54234;50.320;3.474;2023-05-24T19:39:07;0.30;;;0.30;;
67348;SDS011;54234;50.320;3.474;2023-05-24T19:41:32;0.30;;;0.30;;
67348;SDS011;54234;50.320;3.474;2023-05-24T19:43:57;0.30;;;0.30;;
67348;SDS011;54234;50.320;3.474;2023-05-24T19:46:23;0.30;;;0.30;;
67348;SDS011;54234;50.320;3.474;2023-05-24T19:48:48;0.30;;;0.30;;
67348;SDS011;54234;50.320;3.474;2023-05-24T19:51:13;0.30;;;0.30;;
67348;SDS011;54234;50.320;3.474;2023-05-24T19:53:39;0.30;;;0.30;;
67348;SDS011;54234;50.320;3.474;2023-05-24T19:56:04;0.30;;;0.30;;
67348;SDS011;54234;50.320;3.474;2023-05-24T19:58:30;0.30;;;0.30;;
67348;SDS011;54234;50.320;3.474;2023-05-24T20:00:55;0.30;;;0.30;;
67348;SDS011;54234;50.320;3.474;2023-05-24T20:03:20;0.30;;;0.30;;
67348;SDS011;54234;50.320;3.474;2023-05-24T20:05:45;0.30;;;0.30;;
67348;SDS011;54234;50.320;3.474;2023-05-24T20:08:11;0.30;;;0.30;;
67348;SDS011;54234;50.320;3.474;2023-05-24T20:10:36;0.30;;;0.30;;
67348;SDS011;54234;50.320;3.474;2023-05-24T20:13:02;0.30;;;0.30;;
67348;SDS011;54234;50.320;3.474;2023-05-24T20:15:28;0.30;;;0.30;;
67348;SDS011;54234;50.320;3.474;2023-05-24T20:17:54;0.30;;;0.30;;
67348;SDS011;54234;50.320;3.474;2023-05-24T20:20:19;0.30;;;0.30;;
67348;SDS011;54234;50.320;3.474;2023-05-24T20:22:44;0.30;;;0.30;;
67348;SDS011;54234;50.320;3.474;2023-05-24T20:25:09;0.30;;;0.30;;
67348;SDS011;54234;50.320;3.474;2023-05-24T20:27:35;0.30;;;0.30;;
67348;SDS011;54234;50.320;3.474;2023-05-24T20:30:00;0.30;;;0.30;;
67348;SDS011;54234;50.320;3.474;2023-05-24T20:32:26;0.30;;;0.30;;
67348;SDS011;54234;50.320;3.474;2023-05-24T20:34:51;0.30;;;0.30;;
67348;SDS011;54234;50.320;3.474;2023-05-24T20:37:16;0.30;;;0.30;;
67348;SDS011;54234;50.320;3.474;2023-05-24T20:39:42;0.30;;;0.30;;
67348;SDS011;54234;50.320;3.474;2023-05-24T20:42:07;0.30;;;0.30;;
67348;SDS011;54234;50.320;3.474;2023-05-24T20:44:33;0.30;;;0.30;;
67348;SDS011;54234;50.320;3.474;2023-05-24T20:46:58;0.30;;;0.30;;
67348;SDS011;54234;50.320;3.474;2023-05-24T20:49:23;0.30;;;0.30;;
67348;SDS011;54234;50.320;3.474;2023-05-24T20:51:48;0.30;;;0.30;;
67348;SDS011;54234;50.320;3.474;2023-05-24T20:54:13;0.30;;;0.30;;
67348;SDS011;54234;50.320;3.474;2023-05-24T20:56:39;0.30;;;0.30;;
67348;SDS011;54234;50.320;3.474;2023-05-24T20:59:04;0.30;;;0.30;;
67348;SDS011;54234;50.320;3.474;2023-05-24T21:01:29;0.30;;;0.30;;
67348;SDS011;54234;50.320;3.474;2023-05-24T21:03:54;0.30;;;0.30;;
67348;SDS011;54234;50.320;3.474;2023-05-24T21:06:20;0.30;;;0.30;;
67348;SDS011;54234;50.320;3.474;2023-05-24T21:08:45;0.30;;;0.30;;
67348;SDS011;54234;50.320;3.474;2023-05-24T21:11:11;0.30;;;0.30;;
67348;SDS011;54234;50.320;3.474;2023-05-24T21:13:36;0.30;;;0.30;;
67348;SDS011;54234;50.320;3.474;2023-05-24T21:16:01;0.30;;;0.30;;
67348;SDS011;54234;50.320;3.474;2023-05-24T21:18:27;0.30;;;0.30;;
67348;SDS011;54234;50.320;3.474;2023-05-24T21:20:52;0.30;;;0.30;;
67348;SDS011;54234;50.320;3.474;2023-05-24T21:23:17;0.30;;;0.30;;
67348;SDS011;54234;50.320;3.474;2023-05-24T21:25:42;0.30;;;0.30;;
67348;SDS011;54234;50.320;3.474;2023-05-24T21:28:07;0.30;;;0.30;;
67348;SDS011;54234;50.320;3.474;2023-05-24T21:30:34;0.30;;;0.30;;
67348;SDS011;54234;50.320;3.474;2023-05-24T21:32:59;0.30;;;0.30;;
67348;SDS011;54234;50.320;3.474;2023-05-24T21:35:24;0.30;;;0.30;;
67348;SDS011;54234;50.320;3.474;2023-05-24T21:37:50;0.30;;;0.30;;
67348;SDS011;54234;50.320;3.474;2023-05-24T21:40:16;0.30;;;0.30;;
67348;SDS011;54234;50.320;3.474;2023-05-24T21:42:41;0.30;;;0.30;;
67348;SDS011;54234;50.320;3.474;2023-05-24T21:45:07;0.30;;;0.30;;
67348;SDS011;54234;50.320;3.474;2023-05-24T21:47:32;0.30;;;0.30;;
67348;SDS011;54234;50.320;3.474;2023-05-24T21:49:59;0.30;;;0.30;;
67348;SDS011;54234;50.320;3.474;2023-05-24T21:52:24;0.30;;;0.30;;
67348;SDS011;54234;50.320;3.474;2023-05-24T21:54:49;0.30;;;0.30;;
67348;SDS011;54234;50.320;3.474;2023-05-24T21:57:15;0.30;;;0.30;;
67348;SDS011;54234;50.320;3.474;2023-05-24T21:59:40;0.30;;;0.30;;
67348;SDS011;54234;50.320;3.474;2023-05-24T22:02:05;0.27;;;0.27;;
67348;SDS011;54234;50.320;3.474;2023-05-24T22:04:30;0.30;;;0.30;;
67348;SDS011;54234;50.320;3.474;2023-05-24T22:06:55;0.30;;;0.30;;
67348;SDS011;54234;50.320;3.474;2023-05-24T22:09:21;0.30;;;0.30;;
67348;SDS011;54234;50.320;3.474;2023-05-24T22:11:46;0.30;;;0.30;;
67348;SDS011;54234;50.320;3.474;2023-05-24T22:14:11;0.30;;;0.30;;
67348;SDS011;54234;50.320;3.474;2023-05-24T22:16:36;0.30;;;0.30;;
67348;SDS011;54234;50.320;3.474;2023-05-24T22:19:02;0.30;;;0.30;;
67348;SDS011;54234;50.320;3.474;2023-05-24T22:21:27;0.30;;;0.30;;
67348;SDS011;54234;50.320;3.474;2023-05-24T22:23:56;0.30;;;0.30;;
67348;SDS011;54234;50.320;3.474;2023-05-24T22:26:22;0.30;;;0.30;;
67348;SDS011;54234;50.320;3.474;2023-05-24T22:28:52;0.40;;;0.40;;
67348;SDS011;54234;50.320;3.474;2023-05-24T22:31:17;0.30;;;0.30;;
67348;SDS011;54234;50.320;3.474;2023-05-24T22:33:43;0.30;;;0.30;;
67348;SDS011;54234;50.320;3.474;2023-05-24T22:36:09;0.30;;;0.30;;
67348;SDS011;54234;50.320;3.474;2023-05-24T22:38:36;0.30;;;0.30;;
67348;SDS011;54234;50.320;3.474;2023-05-24T22:41:02;0.20;;;0.20;;
67348;SDS011;54234;50.320;3.474;2023-05-24T22:43:27;0.30;;;0.30;;
67348;SDS011;54234;50.320;3.474;2023-05-24T22:45:52;0.30;;;0.30;;
67348;SDS011;54234;50.320;3.474;2023-05-24T22:48:18;0.30;;;0.30;;
67348;SDS011;54234;50.320;3.474;2023-05-24T22:50:45;0.20;;;0.20;;
67348;SDS011;54234;50.320;3.474;2023-05-24T22:53:11;0.30;;;0.30;;
67348;SDS011;54234;50.320;3.474;2023-05-24T22:55:37;0.30;;;0.30;;
67348;SDS011;54234;50.320;3.474;2023-05-24T22:58:02;0.30;;;0.30;;
67348;SDS011;54234;50.320;3.474;2023-05-24T23:00:27;0.30;;;0.30;;
67348;SDS011;54234;50.320;3.474;2023-05-24T23:02:52;0.30;;;0.30;;
67348;SDS011;54234;50.320;3.474;2023-05-24T23:05:18;0.30;;;0.30;;
67348;SDS011;54234;50.320;3.474;2023-05-24T23:07:45;0.30;;;0.30;;
67348;SDS011;54234;50.320;3.474;2023-05-24T23:10:12;0.30;;;0.30;;
67348;SDS011;54234;50.320;3.474;2023-05-24T23:12:37;0.30;;;0.30;;
67348;SDS011;54234;50.320;3.474;2023-05-24T23:15:07;0.30;;;0.30;;
67348;SDS011;54234;50.320;3.474;2023-05-24T23:17:32;0.30;;;0.30;;
67348;SDS011;54234;50.320;3.474;2023-05-24T23:19:57;0.30;;;0.30;;
67348;SDS011;54234;50.320;3.474;2023-05-24T23:22:23;0.30;;;0.30;;
67348;SDS011;54234;50.320;3.474;2023-05-24T23:24:50;0.30;;;0.30;;
67348;SDS011;54234;50.320;3.474;2023-05-24T23:27:15;0.30;;;0.30;;
67348;SDS011;54234;50.320;3.474;2023-05-24T23:29:40;0.30;;;0.30;;
67348;SDS011;54234;50.320;3.474;2023-05-24T23:32:06;0.30;;;0.30;;
67348;SDS011;54234;50.320;3.474;2023-05-24T23:34:31;0.30;;;0.30;;
67348;SDS011;54234;50.320;3.474;2023-05-24T23:36:58;0.30;;;0.30;;
67348;SDS011;54234;50.320;3.474;2023-05-24T23:39:23;0.30;;;0.30;;
67348;SDS011;54234;50.320;3.474;2023-05-24T23:41:48;0.30;;;0.30;;
67348;SDS011;54234;50.320;3.474;2023-05-24T23:44:13;0.30;;;0.30;;
67348;SDS011;54234;50.320;3.474;2023-05-24T23:46:39;0.30;;;0.30;;
67348;SDS011;54234;50.320;3.474;2023-05-24T23:49:04;0.30;;;0.30;;
67348;SDS011;54234;50.320;3.474;2023-05-24T23:51:31;0.20;;;0.20;;
67348;SDS011;54234;50.320;3.474;2023-05-24T23:53:57;0.30;;;0.30;;
67348;SDS011;54234;50.320;3.474;2023-05-24T23:56:22;0.30;;;0.30;;
67348;SDS011;54234;50.320;3.474;2023-05-24T23:58:47;0.30;;;0.30;;
